createdAt,value
2024-03-29T00:00:03.749Z,2.57
2024-03-29T00:03:01.728Z,2.70
2024-03-29T00:05:28.531Z,3.83
2024-03-29T00:07:55.285Z,2.90
2024-03-29T00:10:21.752Z,2.47
2024-03-29T00:12:49.301Z,3.60
2024-03-29T00:15:16.031Z,2.63
2024-03-29T00:17:42.890Z,2.33
2024-03-29T00:20:09.882Z,2.47
2024-03-29T00:22:36.780Z,2.50
2024-03-29T00:25:03.514Z,1.90
2024-03-29T00:27:31.108Z,1.80
2024-03-29T00:29:57.687Z,1.93
2024-03-29T00:32:26.619Z,2.70
2024-03-29T00:34:54.825Z,4.33
2024-03-29T00:37:22.837Z,1.90
2024-03-29T00:39:49.220Z,2.10
2024-03-29T00:42:17.168Z,2.37
2024-03-29T00:44:43.765Z,2.17
2024-03-29T00:47:10.869Z,0.97
2024-03-29T00:49:37.571Z,3.43
2024-03-29T00:52:04.452Z,4.10
2024-03-29T00:54:32.036Z,1.67
2024-03-29T00:56:58.994Z,1.53
2024-03-29T00:59:25.647Z,1.07
2024-03-29T01:01:52.424Z,1.60
2024-03-29T01:04:18.978Z,3.23
2024-03-29T01:06:45.591Z,1.03
2024-03-29T01:09:12.074Z,1.90
2024-03-29T01:11:39.547Z,2.27
2024-03-29T01:14:07.246Z,2.07
2024-03-29T01:16:34.059Z,2.20
2024-03-29T01:19:00.820Z,3.67
2024-03-29T01:21:27.732Z,4.77
2024-03-29T01:23:54.141Z,9.23
2024-03-29T01:26:21.257Z,18.83
2024-03-29T01:28:47.752Z,14.40
2024-03-29T01:31:14.533Z,3.40
2024-03-29T01:33:41.546Z,5.17
2024-03-29T01:36:08.738Z,3.17
2024-03-29T01:38:35.485Z,1.63
2024-03-29T01:41:03.107Z,2.13
2024-03-29T01:43:29.646Z,2.97
2024-03-29T01:45:57.159Z,3.77
2024-03-29T01:48:24.622Z,2.53
2024-03-29T01:50:54.241Z,1.93
2024-03-29T01:53:21.429Z,3.83
2024-03-29T01:55:48.455Z,2.50
2024-03-29T01:58:15.981Z,3.43
2024-03-29T02:00:54.578Z,3.03
2024-03-29T02:03:21.934Z,2.37
2024-03-29T02:05:49.610Z,2.50
2024-03-29T02:08:17.012Z,2.20
2024-03-29T02:10:45.839Z,2.10
2024-03-29T02:13:12.299Z,1.53
2024-03-29T02:15:42.042Z,2.50
2024-03-29T02:18:08.938Z,2.60
2024-03-29T02:20:39.817Z,2.50
2024-03-29T02:23:11.479Z,1.60
2024-03-29T02:25:39.105Z,1.37
2024-03-29T02:28:06.209Z,1.47
2024-03-29T02:30:33.361Z,1.30
2024-03-29T02:33:00.621Z,2.47
2024-03-29T02:35:27.890Z,1.37
2024-03-29T02:37:54.427Z,1.83
2024-03-29T02:40:21.526Z,1.53
2024-03-29T02:42:49.090Z,1.63
2024-03-29T02:45:17.190Z,1.60
2024-03-29T02:47:44.096Z,1.10
2024-03-29T02:50:13.594Z,1.70
2024-03-29T02:52:40.581Z,1.93
2024-03-29T02:55:07.786Z,2.47
2024-03-29T02:57:34.407Z,2.40
2024-03-29T03:00:01.090Z,8.23
2024-03-29T03:02:27.891Z,3.10
2024-03-29T03:04:54.837Z,2.00
2024-03-29T03:07:39.711Z,2.93
2024-03-29T03:10:25.471Z,3.37
2024-03-29T03:12:52.151Z,2.97
2024-03-29T03:15:18.900Z,3.07
2024-03-29T03:17:45.380Z,3.30
2024-03-29T03:20:14.105Z,1.93
2024-03-29T03:22:40.480Z,1.97
2024-03-29T03:25:07.706Z,2.37
2024-03-29T03:27:34.209Z,2.47
2024-03-29T03:30:01.036Z,2.60
2024-03-29T03:32:27.913Z,2.13
2024-03-29T03:34:55.094Z,3.03
2024-03-29T03:37:21.517Z,3.63
2024-03-29T03:39:48.317Z,3.07
2024-03-29T03:42:15.143Z,2.67
2024-03-29T03:44:42.105Z,2.20
2024-03-29T03:47:09.054Z,3.33
2024-03-29T03:49:35.867Z,2.77
2024-03-29T03:52:03.246Z,2.67
2024-03-29T03:54:30.106Z,4.03
2024-03-29T03:56:56.608Z,2.60
2024-03-29T03:59:23.401Z,3.00
2024-03-29T04:01:52.068Z,2.70
2024-03-29T04:04:19.129Z,4.40
2024-03-29T04:06:45.599Z,5.50
2024-03-29T04:09:16.364Z,2.77
2024-03-29T04:11:43.519Z,3.03
2024-03-29T04:14:10.596Z,2.23
2024-03-29T04:16:37.271Z,3.80
2024-03-29T04:19:04.076Z,3.47
2024-03-29T04:21:30.606Z,1.50
2024-03-29T04:23:57.829Z,2.47
2024-03-29T04:26:24.249Z,5.67
2024-03-29T04:28:50.923Z,3.77
2024-03-29T04:31:17.561Z,4.10
2024-03-29T04:33:44.438Z,5.33
2024-03-29T04:36:10.787Z,3.93
2024-03-29T04:38:37.882Z,2.03
2024-03-29T04:41:04.584Z,2.33
2024-03-29T04:43:31.556Z,4.63
2024-03-29T04:46:10.386Z,2.53
2024-03-29T04:48:38.467Z,2.27
2024-03-29T04:51:05.684Z,1.53
2024-03-29T04:53:32.411Z,2.63
2024-03-29T04:55:59.581Z,3.40
2024-03-29T04:58:26.673Z,1.93
2024-03-29T05:00:53.498Z,3.17
2024-03-29T05:03:21.660Z,2.87
2024-03-29T05:05:48.918Z,2.37
2024-03-29T05:08:15.827Z,3.63
2024-03-29T05:10:42.880Z,2.40
2024-03-29T05:13:09.646Z,3.70
2024-03-29T05:15:36.262Z,2.97
2024-03-29T05:18:03.780Z,2.30
2024-03-29T05:20:31.353Z,3.00
2024-03-29T05:23:01.267Z,3.93
2024-03-29T05:25:28.112Z,3.83
2024-03-29T05:27:54.949Z,3.93
2024-03-29T05:30:21.617Z,3.83
2024-03-29T05:32:48.484Z,4.00
2024-03-29T05:35:14.954Z,5.00
2024-03-29T05:37:42.357Z,4.13
2024-03-29T05:40:09.760Z,5.50
2024-03-29T05:42:38.185Z,4.07
2024-03-29T05:45:06.126Z,3.27
2024-03-29T05:47:34.126Z,6.07
2024-03-29T05:50:00.615Z,5.13
2024-03-29T05:52:27.450Z,4.03
2024-03-29T05:54:54.828Z,5.63
2024-03-29T05:57:25.229Z,6.00
2024-03-29T05:59:52.811Z,7.07
2024-03-29T06:02:19.651Z,5.77
2024-03-29T06:04:48.274Z,3.17
2024-03-29T06:07:15.001Z,6.30
2024-03-29T06:09:41.649Z,5.70
2024-03-29T06:12:12.014Z,4.30
2024-03-29T06:14:57.004Z,7.00
2024-03-29T06:17:24.063Z,4.70
2024-03-29T06:20:00.717Z,5.87
2024-03-29T06:22:30.813Z,6.87
2024-03-29T06:25:05.168Z,4.17
2024-03-29T06:27:37.818Z,3.63
2024-03-29T06:30:05.548Z,3.03
2024-03-29T06:32:32.597Z,5.60
2024-03-29T06:34:59.619Z,3.10
2024-03-29T06:37:27.841Z,2.63
2024-03-29T06:39:54.556Z,3.10
2024-03-29T06:42:21.328Z,3.30
2024-03-29T06:44:48.288Z,2.90
2024-03-29T06:47:15.018Z,3.37
2024-03-29T06:49:41.863Z,3.67
2024-03-29T06:52:08.894Z,3.00
2024-03-29T06:54:35.457Z,2.30
2024-03-29T06:57:03.324Z,2.83
2024-03-29T06:59:29.903Z,2.93
2024-03-29T07:01:56.700Z,3.57
2024-03-29T07:04:24.423Z,2.33
2024-03-29T07:06:52.514Z,3.53
2024-03-29T07:09:19.848Z,4.87
2024-03-29T07:11:48.275Z,2.87
2024-03-29T07:14:16.112Z,2.83
2024-03-29T07:16:43.694Z,4.80
2024-03-29T07:19:13.207Z,2.97
2024-03-29T07:21:40.711Z,2.40
2024-03-29T07:24:07.332Z,3.60
2024-03-29T07:26:34.082Z,3.30
2024-03-29T07:29:01.444Z,3.03
2024-03-29T07:31:28.522Z,4.53
2024-03-29T07:33:55.342Z,4.80
2024-03-29T07:36:24.922Z,3.70
2024-03-29T07:38:51.297Z,3.00
2024-03-29T07:41:18.041Z,3.03
2024-03-29T07:43:59.661Z,2.53
2024-03-29T07:46:29.642Z,3.87
2024-03-29T07:48:56.232Z,2.47
2024-03-29T07:51:22.946Z,1.87
2024-03-29T07:53:49.492Z,3.10
2024-03-29T07:56:17.366Z,3.77
2024-03-29T07:58:44.439Z,2.83
2024-03-29T08:01:11.124Z,3.33
2024-03-29T08:03:37.806Z,2.73
2024-03-29T08:06:05.101Z,3.77
2024-03-29T08:08:32.285Z,3.57
2024-03-29T08:10:59.775Z,2.67
2024-03-29T08:13:27.042Z,3.47
2024-03-29T08:16:01.586Z,3.73
2024-03-29T08:18:28.891Z,1.93
2024-03-29T08:20:55.902Z,2.47
2024-03-29T08:23:22.633Z,2.70
2024-03-29T08:25:49.739Z,2.27
2024-03-29T08:28:16.108Z,5.20
2024-03-29T08:30:42.743Z,2.83
2024-03-29T08:33:09.316Z,3.13
2024-03-29T08:35:36.258Z,3.27
2024-03-29T08:38:02.647Z,2.33
2024-03-29T08:40:31.680Z,5.27
2024-03-29T08:42:58.413Z,4.50
2024-03-29T08:45:25.721Z,3.87
2024-03-29T08:47:52.120Z,2.47
2024-03-29T08:50:18.901Z,3.10
2024-03-29T08:52:45.304Z,2.13
2024-03-29T08:55:12.213Z,2.37
2024-03-29T08:57:38.643Z,4.47
2024-03-29T09:00:06.027Z,2.00
2024-03-29T09:02:32.631Z,7.53
2024-03-29T09:04:59.424Z,2.37
2024-03-29T09:07:25.828Z,2.70
2024-03-29T09:09:52.521Z,3.53
2024-03-29T09:12:19.314Z,3.43
2024-03-29T09:14:46.534Z,3.60
2024-03-29T09:17:13.027Z,3.93
2024-03-29T09:19:40.129Z,3.63
2024-03-29T09:22:06.705Z,4.07
2024-03-29T09:24:34.838Z,3.07
2024-03-29T09:27:01.749Z,1.27
2024-03-29T09:29:28.594Z,3.30
2024-03-29T09:31:55.213Z,3.57
2024-03-29T09:34:23.737Z,3.20
2024-03-29T09:36:50.495Z,1.57
2024-03-29T09:39:17.690Z,2.63
2024-03-29T09:41:46.493Z,4.00
2024-03-29T09:44:15.851Z,0.80
2024-03-29T09:46:43.705Z,3.40
2024-03-29T09:49:13.137Z,3.70
2024-03-29T09:51:40.639Z,1.43
2024-03-29T09:54:13.263Z,4.03
2024-03-29T09:56:40.571Z,6.57
2024-03-29T09:59:07.671Z,4.70
2024-03-29T10:01:35.219Z,1.70
2024-03-29T10:04:03.343Z,2.73
2024-03-29T10:06:31.010Z,2.53
2024-03-29T10:08:58.646Z,1.93
2024-03-29T10:11:25.242Z,2.27
2024-03-29T10:13:52.278Z,1.70
2024-03-29T10:16:23.620Z,3.80
2024-03-29T10:18:50.831Z,1.37
2024-03-29T10:21:17.698Z,3.60
2024-03-29T10:23:49.690Z,2.13
2024-03-29T10:26:18.897Z,2.33
2024-03-29T10:28:47.474Z,3.63
2024-03-29T10:31:17.082Z,5.83
2024-03-29T10:33:44.988Z,2.47
2024-03-29T10:36:14.454Z,2.50
2024-03-29T10:38:41.549Z,4.30
2024-03-29T10:41:09.288Z,1.47
2024-03-29T10:43:36.927Z,2.83
2024-03-29T10:46:04.558Z,2.00
2024-03-29T10:48:36.903Z,2.47
2024-03-29T10:51:03.950Z,3.60
2024-03-29T10:53:32.032Z,1.77
2024-03-29T10:55:59.566Z,3.50
2024-03-29T10:58:36.888Z,1.33
2024-03-29T11:01:06.023Z,1.37
2024-03-29T11:03:35.376Z,2.50
2024-03-29T11:06:06.881Z,3.23
2024-03-29T11:08:38.571Z,2.27
2024-03-29T11:11:06.686Z,3.53
2024-03-29T11:13:48.213Z,2.27
2024-03-29T11:16:17.126Z,1.97
2024-03-29T11:18:45.265Z,2.73
2024-03-29T11:21:14.605Z,1.83
2024-03-29T11:23:41.868Z,3.30
2024-03-29T11:26:09.306Z,1.73
2024-03-29T11:28:38.266Z,1.53
2024-03-29T11:31:07.292Z,0.77
2024-03-29T11:33:43.806Z,3.53
2024-03-29T11:36:19.558Z,2.57
2024-03-29T11:38:46.770Z,1.10
2024-03-29T11:41:17.522Z,4.07
2024-03-29T11:43:45.232Z,3.63
2024-03-29T11:46:13.189Z,1.70
2024-03-29T11:48:40.677Z,2.03
2024-03-29T11:51:11.544Z,4.57
2024-03-29T11:53:38.408Z,4.13
2024-03-29T11:56:05.361Z,2.63
2024-03-29T11:58:33.668Z,3.27
2024-03-29T12:01:00.803Z,3.80
2024-03-29T12:03:30.683Z,1.53
2024-03-29T12:06:01.898Z,2.80
2024-03-29T12:08:56.495Z,0.97
2024-03-29T12:11:25.543Z,1.67
2024-03-29T12:13:52.778Z,2.17
2024-03-29T12:16:19.190Z,1.20
2024-03-29T12:18:48.313Z,3.50
2024-03-29T12:21:16.019Z,1.33
2024-03-29T12:23:49.796Z,2.57
2024-03-29T12:26:22.737Z,4.87
2024-03-29T12:28:50.482Z,4.68
2024-03-29T12:31:16.998Z,6.30
2024-03-29T12:33:52.717Z,2.95
2024-03-29T12:36:20.722Z,2.53
2024-03-29T12:38:52.934Z,5.30
2024-03-29T12:41:19.373Z,4.57
2024-03-29T12:43:46.335Z,3.17
2024-03-29T12:46:12.707Z,2.77
2024-03-29T12:48:39.771Z,3.37
2024-03-29T12:51:07.547Z,4.15
2024-03-29T12:53:34.466Z,3.67
2024-03-29T12:56:01.270Z,4.87
2024-03-29T12:58:28.064Z,1.87
2024-03-29T13:00:54.888Z,2.50
2024-03-29T13:03:21.771Z,4.60
2024-03-29T13:05:48.664Z,2.10
2024-03-29T13:08:18.387Z,4.67
2024-03-29T13:10:45.724Z,2.43
2024-03-29T13:13:12.977Z,5.00
2024-03-29T13:15:40.057Z,1.77
2024-03-29T13:18:07.549Z,3.60
2024-03-29T13:20:45.806Z,2.75
2024-03-29T13:23:12.600Z,4.03
2024-03-29T13:25:39.780Z,2.30
2024-03-29T13:28:07.938Z,4.30
2024-03-29T13:30:34.509Z,2.40
2024-03-29T13:33:01.235Z,5.83
2024-03-29T13:35:27.914Z,3.23
2024-03-29T13:37:55.368Z,1.73
2024-03-29T13:40:26.473Z,2.00
2024-03-29T13:42:53.307Z,5.13
2024-03-29T13:45:19.773Z,1.57
2024-03-29T13:47:49.771Z,5.70
2024-03-29T13:50:16.754Z,7.23
2024-03-29T13:52:44.575Z,3.53
2024-03-29T13:55:11.445Z,2.87
2024-03-29T13:57:39.719Z,5.07
2024-03-29T14:00:07.464Z,2.83
2024-03-29T14:02:35.383Z,2.30
2024-03-29T14:05:02.108Z,4.97
2024-03-29T14:07:29.213Z,1.60
2024-03-29T14:09:55.812Z,3.03
2024-03-29T14:12:24.614Z,3.15
2024-03-29T14:14:54.743Z,3.87
2024-03-29T14:17:21.729Z,1.97
2024-03-29T14:19:50.272Z,1.87
2024-03-29T14:22:19.554Z,3.08
2024-03-29T14:24:46.920Z,5.45
2024-03-29T14:27:14.689Z,2.37
2024-03-29T14:29:41.352Z,3.25
2024-03-29T14:32:08.116Z,2.17
2024-03-29T14:34:39.199Z,3.28
2024-03-29T14:37:06.358Z,6.13
2024-03-29T14:39:32.695Z,3.75
2024-03-29T14:42:02.751Z,5.00
2024-03-29T14:44:29.318Z,2.80
2024-03-29T14:46:56.262Z,3.88
2024-03-29T14:49:23.703Z,3.88
2024-03-29T14:51:51.724Z,2.20
2024-03-29T14:54:20.550Z,2.37
2024-03-29T14:56:48.044Z,4.57
2024-03-29T14:59:14.535Z,2.57
2024-03-29T15:01:43.058Z,2.57
2024-03-29T15:04:09.590Z,2.97
2024-03-29T15:06:36.492Z,1.85
2024-03-29T15:09:04.674Z,2.63
2024-03-29T15:11:34.185Z,3.95
2024-03-29T15:14:00.789Z,2.63
2024-03-29T15:16:28.536Z,2.70
2024-03-29T15:18:57.092Z,1.80
2024-03-29T15:21:24.351Z,5.13
2024-03-29T15:23:50.945Z,3.50
2024-03-29T15:26:20.050Z,4.83
2024-03-29T15:29:05.628Z,2.73
2024-03-29T15:31:32.556Z,3.03
2024-03-29T15:33:59.206Z,5.93
2024-03-29T15:36:26.001Z,2.97
2024-03-29T15:38:54.851Z,3.70
2024-03-29T15:41:21.762Z,2.53
2024-03-29T15:43:48.341Z,3.03
2024-03-29T15:46:15.209Z,1.63
2024-03-29T15:48:42.336Z,3.50
2024-03-29T15:51:13.665Z,3.97
2024-03-29T15:53:41.442Z,7.00
2024-03-29T15:56:08.633Z,2.63
2024-03-29T15:58:35.139Z,2.30
2024-03-29T16:01:04.316Z,5.33
2024-03-29T16:03:31.343Z,3.10
2024-03-29T16:05:58.152Z,6.47
2024-03-29T16:08:24.862Z,3.33
2024-03-29T16:10:56.253Z,6.00
2024-03-29T16:13:24.028Z,2.47
2024-03-29T16:15:51.609Z,4.37
2024-03-29T16:18:20.282Z,3.60
2024-03-29T16:20:47.602Z,5.00
2024-03-29T16:23:15.162Z,4.27
2024-03-29T16:25:43.869Z,5.37
2024-03-29T16:28:11.757Z,5.67
2024-03-29T16:30:39.054Z,5.37
2024-03-29T16:33:06.354Z,6.90
2024-03-29T16:35:34.025Z,5.47
2024-03-29T16:38:00.667Z,4.83
2024-03-29T16:40:28.321Z,4.10
2024-03-29T16:42:54.769Z,2.53
2024-03-29T16:45:22.121Z,3.47
2024-03-29T16:47:51.295Z,3.50
2024-03-29T16:50:18.296Z,4.60
2024-03-29T16:52:44.797Z,3.73
2024-03-29T16:55:11.856Z,4.53
2024-03-29T16:57:39.264Z,4.50
2024-03-29T17:00:15.282Z,7.57
2024-03-29T17:02:42.258Z,4.17
2024-03-29T17:05:09.353Z,3.83
2024-03-29T17:07:36.423Z,5.73
2024-03-29T17:10:07.049Z,4.57
2024-03-29T17:12:35.116Z,5.70
2024-03-29T17:15:02.560Z,6.37
2024-03-29T17:17:30.009Z,7.67
2024-03-29T17:19:57.102Z,6.53
2024-03-29T17:22:23.856Z,3.27
2024-03-29T17:24:51.062Z,8.53
2024-03-29T17:27:17.538Z,7.03
2024-03-29T17:29:44.661Z,6.20
2024-03-29T17:32:12.385Z,4.93
2024-03-29T17:34:42.730Z,4.60
2024-03-29T17:37:09.778Z,8.10
2024-03-29T17:39:36.389Z,4.77
2024-03-29T17:42:03.882Z,10.37
2024-03-29T17:44:30.979Z,8.10
2024-03-29T17:46:57.398Z,12.63
2024-03-29T17:49:24.171Z,14.77
2024-03-29T17:51:50.651Z,14.50
2024-03-29T17:54:17.442Z,13.43
2024-03-29T17:56:43.792Z,20.07
2024-03-29T17:59:11.071Z,18.73
2024-03-29T18:01:38.100Z,15.23
2024-03-29T18:04:05.085Z,12.37
2024-03-29T18:06:31.870Z,12.40
2024-03-29T18:08:59.532Z,11.93
2024-03-29T18:11:29.053Z,8.50
2024-03-29T18:13:59.102Z,15.73
2024-03-29T18:16:25.439Z,15.73
2024-03-29T18:18:52.578Z,9.33
2024-03-29T18:21:19.276Z,10.83
2024-03-29T18:23:46.024Z,5.77
2024-03-29T18:26:12.929Z,6.93
2024-03-29T18:28:39.766Z,8.63
2024-03-29T18:31:12.577Z,6.93
2024-03-29T18:33:39.742Z,7.00
2024-03-29T18:36:07.006Z,6.87
2024-03-29T18:38:35.267Z,6.20
2024-03-29T18:41:02.680Z,5.10
2024-03-29T18:43:29.983Z,8.07
2024-03-29T18:45:57.354Z,5.43
2024-03-29T18:48:24.381Z,8.07
2024-03-29T18:50:55.612Z,6.90
2024-03-29T18:53:22.637Z,8.00
2024-03-29T18:56:00.824Z,8.53
2024-03-29T18:58:28.683Z,7.27
2024-03-29T19:00:56.537Z,6.07
2024-03-29T19:03:24.636Z,5.90
2024-03-29T19:05:52.699Z,9.37
2024-03-29T19:08:20.386Z,6.53
2024-03-29T19:10:47.080Z,11.90
2024-03-29T19:13:14.049Z,9.03
2024-03-29T19:15:40.999Z,7.47
2024-03-29T19:18:07.959Z,8.30
2024-03-29T19:20:34.512Z,7.20
2024-03-29T19:23:02.089Z,7.87
2024-03-29T19:25:28.902Z,10.77
2024-03-29T19:27:56.852Z,36.73
2024-03-29T19:30:23.406Z,18.80
2024-03-29T19:32:57.809Z,12.33
2024-03-29T19:35:25.889Z,15.20
2024-03-29T19:37:55.284Z,10.77
2024-03-29T19:40:22.711Z,11.13
2024-03-29T19:42:49.917Z,19.87
2024-03-29T19:45:17.009Z,11.27
2024-03-29T19:47:56.592Z,8.70
2024-03-29T19:50:23.757Z,11.37
2024-03-29T19:52:50.582Z,9.30
2024-03-29T19:55:21.209Z,8.80
2024-03-29T19:57:49.452Z,8.23
2024-03-29T20:00:17.766Z,8.37
2024-03-29T20:02:45.288Z,8.27
2024-03-29T20:05:12.586Z,8.60
2024-03-29T20:07:40.054Z,6.60
2024-03-29T20:10:06.790Z,10.57
2024-03-29T20:12:34.239Z,6.63
2024-03-29T20:15:00.831Z,9.70
2024-03-29T20:17:27.866Z,8.53
2024-03-29T20:19:54.836Z,7.70
2024-03-29T20:22:21.760Z,8.93
2024-03-29T20:24:48.282Z,11.83
2024-03-29T20:27:15.176Z,7.47
2024-03-29T20:29:42.178Z,8.33
2024-03-29T20:32:09.496Z,8.07
2024-03-29T20:34:39.028Z,12.20
2024-03-29T20:37:09.910Z,8.93
2024-03-29T20:39:37.593Z,9.10
2024-03-29T20:42:04.757Z,7.50
2024-03-29T20:44:31.412Z,14.50
2024-03-29T20:46:59.596Z,9.43
2024-03-29T20:49:27.656Z,9.93
2024-03-29T20:51:54.620Z,7.13
2024-03-29T20:54:21.216Z,9.50
2024-03-29T20:56:48.207Z,7.13
2024-03-29T20:59:16.002Z,9.80
2024-03-29T21:02:03.456Z,8.43
2024-03-29T21:07:30.247Z,8.17
2024-03-29T21:09:56.904Z,13.53
2024-03-29T21:12:30.096Z,10.47
2024-03-29T21:14:57.714Z,8.17
2024-03-29T21:17:24.519Z,8.90
2024-03-29T21:19:51.306Z,11.93
2024-03-29T21:22:18.542Z,8.20
2024-03-29T21:24:45.286Z,27.50
2024-03-29T21:27:12.285Z,17.00
2024-03-29T21:29:39.003Z,10.20
2024-03-29T21:32:06.275Z,8.67
2024-03-29T21:34:33.060Z,9.90
2024-03-29T21:36:59.855Z,10.77
2024-03-29T21:39:26.388Z,12.57
2024-03-29T21:41:53.857Z,9.07
2024-03-29T21:44:20.901Z,9.53
2024-03-29T21:46:47.870Z,10.10
2024-03-29T21:49:14.502Z,9.40
2024-03-29T21:51:41.586Z,9.77
2024-03-29T21:54:08.515Z,10.67
2024-03-29T21:56:35.336Z,10.00
2024-03-29T21:59:01.973Z,8.73
2024-03-29T22:01:32.479Z,7.20
2024-03-29T22:03:59.584Z,8.20
2024-03-29T22:06:26.530Z,11.87
2024-03-29T22:08:53.135Z,7.40
2024-03-29T22:11:20.112Z,8.93
2024-03-29T22:13:46.556Z,8.93
2024-03-29T22:16:13.292Z,8.90
2024-03-29T22:18:39.935Z,10.10
2024-03-29T22:21:06.829Z,11.07
2024-03-29T22:23:33.503Z,9.83
2024-03-29T22:26:00.327Z,12.17
2024-03-29T22:28:27.134Z,8.97
2024-03-29T22:30:54.219Z,14.30
2024-03-29T22:33:20.950Z,13.13
2024-03-29T22:35:47.766Z,12.73
2024-03-29T22:38:14.300Z,11.17
2024-03-29T22:40:49.091Z,13.97
2024-03-29T22:43:15.614Z,14.67
2024-03-29T22:45:42.835Z,10.83
2024-03-29T22:48:11.135Z,12.83
2024-03-29T22:50:38.395Z,14.13
2024-03-29T22:53:07.881Z,12.77
2024-03-29T22:55:35.389Z,12.73
2024-03-29T22:58:03.614Z,14.43
2024-03-29T23:00:34.078Z,15.33
2024-03-29T23:03:00.618Z,17.70
2024-03-29T23:05:28.642Z,14.83
2024-03-29T23:07:56.203Z,22.00
2024-03-29T23:10:24.030Z,17.13
2024-03-29T23:12:50.842Z,13.20
2024-03-29T23:15:18.786Z,14.80
2024-03-29T23:17:48.425Z,14.03
2024-03-29T23:20:15.434Z,17.07
2024-03-29T23:22:42.165Z,12.20
2024-03-29T23:25:09.244Z,13.83
2024-03-29T23:27:36.545Z,14.77
2024-03-29T23:30:04.562Z,12.07
2024-03-29T23:32:31.981Z,10.10
2024-03-29T23:34:58.789Z,9.77
2024-03-29T23:37:25.680Z,11.67
2024-03-29T23:39:52.636Z,14.03
2024-03-29T23:42:19.103Z,16.33
2024-03-29T23:44:50.897Z,15.17
2024-03-29T23:47:17.548Z,13.57
2024-03-29T23:49:44.484Z,12.40
2024-03-29T23:52:10.842Z,11.80
2024-03-29T23:54:37.757Z,10.13
2024-03-29T23:57:04.574Z,10.87
2024-03-29T23:59:31.514Z,8.83
